Time;durP1;ratioP1;P1;durP2;ratioP2;P2;SDS_P1;SDS_P2;PMS_P1;PMS_P2;Temp;Humidity;BMP_temperature;BMP_pressure;BME280_temperature;BME280_humidity;BME280_pressure;Samples;Min_cycle;Max_cycle;Signal;HPM_P1;HPM_P2
2024/04/08 00:00:29;;;;;;;8.45;2.40;;;13.50;99.90;;;;;;5020633;28;20864;-81
2024/04/08 00:02:56;;;;;;;10.93;2.50;;;13.50;99.90;;;;;;4989381;28;20034;-81
2024/04/08 00:05:22;;;;;;;9.90;2.45;;;13.50;99.90;;;;;;4986995;28;20141;-81
2024/04/08 00:07:48;;;;;;;7.55;2.30;;;13.40;99.90;;;;;;4977253;28;20056;-81
2024/04/08 00:10:15;;;;;;;10.90;2.90;;;13.50;99.90;;;;;;4973959;28;20061;-81
2024/04/08 00:12:41;;;;;;;9.45;2.30;;;13.50;99.90;;;;;;4989875;28;20050;-82
2024/04/08 00:15:09;;;;;;;10.48;2.72;;;13.60;99.90;;;;;;4973807;28;20065;-81
2024/04/08 00:17:35;;;;;;;12.23;2.90;;;13.50;99.90;;;;;;4973063;28;20054;-81
2024/04/08 00:20:05;;;;;;;7.88;2.20;;;13.60;99.90;;;;;;4968400;28;20982;-81
2024/04/08 00:22:31;;;;;;;10.85;2.97;;;13.60;99.90;;;;;;4972207;28;20104;-80
2024/04/08 00:24:56;;;;;;;9.27;2.13;;;13.50;99.90;;;;;;4989270;28;20038;-81
2024/04/08 00:27:23;;;;;;;8.98;2.45;;;13.50;99.90;;;;;;4971122;28;20054;-80
2024/04/08 00:29:49;;;;;;;9.90;2.38;;;13.50;99.90;;;;;;4968504;28;20045;-80
2024/04/08 00:32:15;;;;;;;9.40;2.20;;;13.40;99.90;;;;;;4971084;28;20052;-81
2024/04/08 00:34:41;;;;;;;6.50;2.15;;;13.50;99.90;;;;;;4987396;28;20057;-80
2024/04/08 00:37:08;;;;;;;7.20;2.15;;;13.50;99.90;;;;;;4987151;28;20546;-81
2024/04/08 00:39:35;;;;;;;6.50;2.00;;;13.40;99.90;;;;;;5001933;28;20073;-81
2024/04/08 00:42:02;;;;;;;10.63;2.67;;;13.40;99.90;;;;;;4988296;28;20038;-81
2024/04/08 00:44:34;;;;;;;10.93;3.10;;;13.40;99.90;;;;;;4985429;28;20387;-81
2024/04/08 00:47:00;;;;;;;9.73;2.75;;;13.40;99.90;;;;;;4983137;28;20077;-82
2024/04/08 00:49:29;;;;;;;7.18;2.85;;;13.30;99.90;;;;;;4984490;28;20486;-82
2024/04/08 00:51:56;;;;;;;7.43;2.47;;;13.30;99.90;;;;;;4972072;28;20061;-81
2024/04/08 00:54:27;;;;;;;10.20;2.80;;;13.20;99.90;;;;;;4975506;28;20041;-81
2024/04/08 00:56:55;;;;;;;9.60;2.42;;;13.20;99.90;;;;;;5001279;28;20065;-81
2024/04/08 00:59:22;;;;;;;8.20;2.70;;;13.20;99.90;;;;;;5013127;28;20081;-81
2024/04/08 01:01:49;;;;;;;10.52;2.75;;;13.10;99.90;;;;;;4970164;28;20046;-81
2024/04/08 01:04:15;;;;;;;13.10;3.40;;;13.20;99.90;;;;;;4971816;28;20049;-81
2024/04/08 01:06:42;;;;;;;11.75;3.15;;;13.10;99.90;;;;;;4984787;28;20132;-81
2024/04/08 01:09:11;;;;;;;12.18;3.05;;;13.10;99.90;;;;;;4985110;28;20054;-81
2024/04/08 01:11:38;;;;;;;11.40;3.53;;;13.10;99.90;;;;;;4972146;28;20140;-81
2024/04/08 01:14:03;;;;;;;12.57;3.22;;;13.00;99.90;;;;;;4979947;28;20074;-81
2024/04/08 01:16:29;;;;;;;14.45;3.00;;;13.00;99.90;;;;;;4971858;28;20077;-82
2024/04/08 01:18:55;;;;;;;9.25;2.60;;;13.00;99.90;;;;;;4971593;28;20042;-81
2024/04/08 01:21:21;;;;;;;9.93;2.50;;;13.00;99.90;;;;;;4966285;28;20068;-81
2024/04/08 01:23:47;;;;;;;11.43;2.85;;;13.00;99.90;;;;;;4982652;28;20180;-81
2024/04/08 01:26:12;;;;;;;12.60;3.33;;;13.00;99.90;;;;;;4970674;28;20095;-80
2024/04/08 01:28:39;;;;;;;12.77;3.45;;;13.00;99.90;;;;;;4976834;28;20128;-80
2024/04/08 01:31:05;;;;;;;11.10;3.63;;;12.90;99.90;;;;;;4988516;28;20034;-80
2024/04/08 01:33:31;;;;;;;13.70;3.75;;;12.90;99.90;;;;;;4982782;28;20046;-80
2024/04/08 01:36:00;;;;;;;9.18;3.90;;;12.80;99.90;;;;;;4985252;28;20034;-80
2024/04/08 01:38:28;;;;;;;10.52;3.95;;;12.80;99.90;;;;;;4967578;28;20072;-80
2024/04/08 01:40:55;;;;;;;11.07;4.00;;;12.80;99.90;;;;;;5017249;28;20045;-80
2024/04/08 01:43:21;;;;;;;13.02;4.43;;;12.70;99.90;;;;;;4977938;28;20053;-80
2024/04/08 01:45:47;;;;;;;10.68;3.90;;;12.70;99.90;;;;;;4969763;28;20038;-80
2024/04/08 01:48:13;;;;;;;9.02;3.72;;;12.70;99.90;;;;;;4983848;28;20038;-79
2024/04/08 01:50:39;;;;;;;10.63;4.30;;;12.70;99.90;;;;;;4969691;28;20038;-80
2024/04/08 01:53:04;;;;;;;8.32;3.97;;;12.70;99.90;;;;;;4984138;28;21865;-80
2024/04/08 01:55:30;;;;;;;10.48;4.57;;;12.70;99.90;;;;;;4970498;28;20103;-79
2024/04/08 01:57:57;;;;;;;8.40;3.78;;;12.70;99.90;;;;;;4972040;28;20157;-79
2024/04/08 02:00:23;;;;;;;7.18;3.45;;;12.70;99.90;;;;;;4963263;28;20050;-80
2024/04/08 02:02:49;;;;;;;10.30;4.30;;;12.80;99.90;;;;;;4999348;28;20407;-79
2024/04/08 02:05:15;;;;;;;10.20;4.18;;;12.80;99.90;;;;;;4975024;28;20058;-79
2024/04/08 02:07:42;;;;;;;7.07;3.67;;;12.80;99.90;;;;;;4986134;28;20454;-79
2024/04/08 02:10:11;;;;;;;9.50;4.60;;;12.80;99.90;;;;;;4990113;28;20043;-79
2024/04/08 02:12:40;;;;;;;9.18;4.47;;;12.80;99.90;;;;;;4977178;28;20499;-79
2024/04/08 02:15:06;;;;;;;8.32;3.92;;;12.80;99.90;;;;;;4999512;28;20041;-79
2024/04/08 02:17:32;;;;;;;8.60;4.10;;;12.90;99.90;;;;;;4974910;28;20050;-79
2024/04/08 02:19:57;;;;;;;8.65;4.50;;;12.90;99.90;;;;;;4976157;28;20214;-79
2024/04/08 02:22:23;;;;;;;8.20;4.57;;;12.90;99.90;;;;;;4978053;28;20054;-79
2024/04/08 02:24:49;;;;;;;6.80;4.30;;;12.90;99.90;;;;;;4960963;28;20046;-79
2024/04/08 02:27:14;;;;;;;8.07;4.68;;;12.90;99.90;;;;;;4988200;28;20092;-79
2024/04/08 02:29:40;;;;;;;7.03;4.40;;;12.90;99.90;;;;;;4965438;28;20540;-80
2024/04/08 02:32:06;;;;;;;8.88;4.80;;;12.90;99.90;;;;;;4997309;28;20105;-79
2024/04/08 02:34:32;;;;;;;14.75;5.60;;;12.90;99.90;;;;;;4966547;28;20494;-79
2024/04/08 02:36:58;;;;;;;8.68;4.47;;;12.90;99.90;;;;;;4989607;28;20041;-79
2024/04/08 02:39:24;;;;;;;9.55;4.63;;;12.90;99.90;;;;;;4974262;28;20073;-80
2024/04/08 02:41:49;;;;;;;9.32;5.13;;;12.90;99.90;;;;;;4989327;28;20495;-80
2024/04/08 02:44:15;;;;;;;6.32;4.80;;;12.90;99.90;;;;;;4989639;28;20042;-79
2024/04/08 02:46:41;;;;;;;6.97;4.78;;;12.90;99.90;;;;;;4975916;28;20524;-80
2024/04/08 02:49:06;;;;;;;9.98;5.13;;;12.90;99.90;;;;;;4985644;28;20041;-79
2024/04/08 02:51:32;;;;;;;9.27;5.38;;;12.90;99.90;;;;;;4987710;28;20050;-79
2024/04/08 02:53:58;;;;;;;8.13;5.25;;;12.90;99.90;;;;;;4988523;28;20597;-79
2024/04/08 02:56:24;;;;;;;8.70;4.35;;;12.90;99.90;;;;;;4988241;28;20100;-79
2024/04/08 02:58:49;;;;;;;7.68;5.00;;;12.90;99.90;;;;;;4989248;28;20087;-79
2024/04/08 03:01:15;;;;;;;8.80;4.85;;;12.90;99.90;;;;;;4988849;28;20049;-79
2024/04/08 03:03:41;;;;;;;7.93;4.47;;;12.90;99.90;;;;;;4973429;28;20092;-80
2024/04/08 03:06:11;;;;;;;7.18;4.07;;;12.90;99.90;;;;;;4986603;28;20031;-79
2024/04/08 03:08:37;;;;;;;;;;;12.90;99.90;;;;;;5018310;28;20046;-79
2024/04/08 03:11:04;;;;;;;7.85;4.47;;;12.90;99.90;;;;;;4988950;28;19925;-79
2024/04/08 03:13:31;;;;;;;7.97;4.60;;;12.80;99.90;;;;;;5019084;28;20496;-79
2024/04/08 03:15:57;;;;;;;7.95;4.65;;;12.80;99.90;;;;;;4974412;28;20050;-79
2024/04/08 03:18:23;;;;;;;9.55;4.97;;;12.80;99.90;;;;;;4986659;28;20111;-79
2024/04/08 03:21:01;;;;;;;8.48;4.85;;;12.80;99.90;;;;;;4986560;28;20177;-79
2024/04/08 03:23:28;;;;;;;8.23;4.75;;;12.80;99.90;;;;;;4987549;28;20041;-79
2024/04/08 03:25:56;;;;;;;7.25;4.22;;;12.80;99.90;;;;;;4999176;28;20521;-79
2024/04/08 03:28:22;;;;;;;8.80;3.92;;;12.90;99.90;;;;;;4987796;28;20046;-79
2024/04/08 03:30:48;;;;;;;8.57;3.92;;;12.90;99.90;;;;;;5006649;28;20106;-79
2024/04/08 03:33:14;;;;;;;10.35;5.55;;;12.90;99.90;;;;;;4971996;28;20057;-79
2024/04/08 03:35:40;;;;;;;7.75;4.30;;;12.90;99.90;;;;;;4987596;28;20083;-79
2024/04/08 03:38:06;;;;;;;10.23;5.30;;;12.90;99.90;;;;;;4970381;28;20565;-79
2024/04/08 03:40:32;;;;;;;8.05;4.50;;;12.90;99.90;;;;;;4990412;28;20081;-78
2024/04/08 03:42:58;;;;;;;7.78;5.45;;;12.90;99.90;;;;;;5018102;28;20084;-79
2024/04/08 03:45:23;;;;;;;5.95;4.55;;;12.90;99.90;;;;;;4987600;28;20081;-79
2024/04/08 03:47:49;;;;;;;8.55;4.78;;;12.90;99.90;;;;;;4983211;28;20559;-79
2024/04/08 03:50:15;;;;;;;8.68;5.00;;;12.80;99.90;;;;;;4988879;28;20041;-79
2024/04/08 03:52:40;;;;;;;8.00;5.22;;;12.80;99.90;;;;;;4969226;28;20046;-78
2024/04/08 03:55:06;;;;;;;7.97;5.38;;;12.90;99.90;;;;;;4987130;28;20511;-79
2024/04/08 03:57:32;;;;;;;8.30;4.95;;;12.90;99.90;;;;;;4985723;28;20053;-79
2024/04/08 03:59:58;;;;;;;9.65;4.70;;;12.90;99.90;;;;;;5018527;28;20533;-79
2024/04/08 04:02:24;;;;;;;7.32;4.82;;;12.90;99.90;;;;;;5011256;28;20173;-79
2024/04/08 04:04:49;;;;;;;8.90;5.13;;;12.90;99.90;;;;;;5000670;28;20041;-79
2024/04/08 04:07:15;;;;;;;6.38;5.22;;;12.90;99.90;;;;;;4991776;28;20445;-79
2024/04/08 04:09:41;;;;;;;9.23;6.10;;;12.90;99.90;;;;;;4957939;28;20050;-79
2024/04/08 04:12:07;;;;;;;9.77;5.72;;;12.90;99.90;;;;;;5017046;28;20487;-79
2024/04/08 04:14:33;;;;;;;8.88;5.93;;;12.90;99.90;;;;;;4973265;28;20073;-79
2024/04/08 04:16:58;;;;;;;9.52;6.38;;;12.90;99.90;;;;;;4962050;28;20072;-79
2024/04/08 04:19:24;;;;;;;8.55;6.28;;;12.90;99.90;;;;;;4968768;28;20049;-79
2024/04/08 04:21:50;;;;;;;10.27;5.90;;;12.90;99.90;;;;;;4972179;28;20046;-79
2024/04/08 04:24:15;;;;;;;11.02;6.95;;;12.90;99.90;;;;;;4977637;28;20121;-79
2024/04/08 04:26:41;;;;;;;9.00;6.18;;;12.90;99.90;;;;;;5014232;28;20054;-79
2024/04/08 04:29:10;;;;;;;8.43;6.90;;;12.90;99.90;;;;;;5017684;28;20045;-79
2024/04/08 04:31:44;;;;;;;7.95;6.65;;;12.90;99.90;;;;;;4994534;28;20565;-79
2024/04/08 04:34:10;;;;;;;8.50;6.05;;;12.90;99.90;;;;;;5013475;28;20046;-79
2024/04/08 04:36:36;;;;;;;9.25;5.93;;;12.90;99.90;;;;;;4971733;28;20490;-79
2024/04/08 04:39:03;;;;;;;13.25;7.60;;;12.90;99.90;;;;;;5003839;28;20073;-80
2024/04/08 04:41:29;;;;;;;12.60;7.25;;;12.90;99.90;;;;;;4983376;28;20050;-80
2024/04/08 04:43:54;;;;;;;13.13;7.97;;;12.90;99.90;;;;;;4977498;28;20120;-79
2024/04/08 04:46:20;;;;;;;9.77;7.25;;;12.90;99.90;;;;;;4977952;28;20434;-79
2024/04/08 04:48:46;;;;;;;8.00;6.35;;;12.90;99.90;;;;;;4975213;28;20050;-79
2024/04/08 04:51:12;;;;;;;10.43;7.07;;;12.90;99.90;;;;;;4971776;28;20100;-79
2024/04/08 04:53:38;;;;;;;9.25;7.40;;;12.90;99.90;;;;;;4975004;28;20137;-79
2024/04/08 04:56:04;;;;;;;10.30;7.35;;;12.90;99.90;;;;;;4974352;28;20065;-79
2024/04/08 04:58:30;;;;;;;11.30;8.18;;;12.90;99.90;;;;;;4967397;28;20085;-80
2024/04/08 05:00:56;;;;;;;12.20;7.78;;;12.90;99.90;;;;;;5005144;28;20042;-80
2024/04/08 05:03:22;;;;;;;12.00;8.65;;;12.90;99.90;;;;;;4986621;28;20046;-79
2024/04/08 05:05:55;;;;;;;12.35;7.90;;;12.90;99.90;;;;;;4987653;28;20129;-80
2024/04/08 05:08:21;;;;;;;10.10;7.82;;;12.90;99.90;;;;;;4967008;28;20427;-79
2024/04/08 05:10:47;;;;;;;9.55;8.10;;;12.90;99.90;;;;;;4986804;28;20038;-80
2024/04/08 05:13:15;;;;;;;13.60;8.52;;;12.90;99.90;;;;;;4982933;28;20056;-80
2024/04/08 05:15:41;;;;;;;10.68;8.15;;;12.80;99.90;;;;;;4981841;28;20038;-79
2024/04/08 05:18:07;;;;;;;11.52;8.10;;;12.80;99.90;;;;;;4972995;28;20141;-79
2024/04/08 05:20:34;;;;;;;14.65;8.98;;;12.80;99.90;;;;;;4968646;28;20042;-79
2024/04/08 05:23:00;;;;;;;12.85;8.20;;;12.80;99.90;;;;;;4986215;28;20580;-79
2024/04/08 05:25:26;;;;;;;12.52;9.02;;;12.80;99.90;;;;;;5000470;28;20129;-79
2024/04/08 05:27:52;;;;;;;12.88;8.73;;;12.90;99.90;;;;;;5014671;28;20482;-79
2024/04/08 05:30:18;;;;;;;9.82;8.23;;;12.90;99.90;;;;;;4985333;28;20043;-79
2024/04/08 05:32:44;;;;;;;13.60;8.82;;;12.90;99.90;;;;;;4989161;28;20061;-79
2024/04/08 05:35:10;;;;;;;12.05;8.13;;;12.90;99.90;;;;;;4985832;28;20450;-79
2024/04/08 05:37:35;;;;;;;13.85;8.40;;;12.90;99.90;;;;;;4971329;28;20137;-79
2024/04/08 05:40:02;;;;;;;9.38;8.13;;;12.90;99.90;;;;;;4982011;28;20042;-79
2024/04/08 05:42:28;;;;;;;10.00;7.85;;;12.90;99.90;;;;;;4984462;28;20056;-79
2024/04/08 05:44:54;;;;;;;12.20;8.98;;;12.90;99.90;;;;;;5016535;28;20038;-79
2024/04/08 05:47:20;;;;;;;13.27;8.45;;;12.90;99.90;;;;;;4967369;28;20057;-78
2024/04/08 05:49:45;;;;;;;10.23;7.55;;;12.90;99.90;;;;;;4970624;28;20046;-78
2024/04/08 05:52:11;;;;;;;13.25;9.43;;;12.90;99.90;;;;;;4968419;28;20410;-79
2024/04/08 05:54:37;;;;;;;9.80;7.68;;;13.00;99.90;;;;;;4986607;28;20042;-78
2024/04/08 05:57:04;;;;;;;10.25;8.00;;;13.00;99.90;;;;;;4982293;28;20049;-78
2024/04/08 05:59:30;;;;;;;9.73;6.90;;;13.00;99.90;;;;;;4988696;28;20092;-79
2024/04/08 06:01:55;;;;;;;11.32;7.28;;;13.00;99.90;;;;;;4978064;28;20046;-78
2024/04/08 06:04:21;;;;;;;14.10;9.23;;;13.00;99.90;;;;;;4986244;28;20060;-78
2024/04/08 06:06:47;;;;;;;8.05;7.00;;;13.00;99.90;;;;;;4984453;28;20046;-78
2024/04/08 06:09:12;;;;;;;13.15;8.55;;;13.10;99.90;;;;;;4970022;28;20441;-78
2024/04/08 06:11:38;;;;;;;9.77;7.88;;;13.10;99.90;;;;;;4984663;28;20112;-78
2024/04/08 06:14:04;;;;;;;10.38;8.02;;;13.10;99.90;;;;;;4992198;28;20474;-78
2024/04/08 06:16:30;;;;;;;11.93;7.30;;;13.10;99.90;;;;;;4986534;28;20042;-78
2024/04/08 06:18:55;;;;;;;9.82;7.38;;;13.20;99.90;;;;;;4976309;28;20038;-78
2024/04/08 06:21:21;;;;;;;9.57;6.78;;;13.20;99.90;;;;;;4984694;28;20042;-79
2024/04/08 06:23:47;;;;;;;10.65;7.38;;;13.20;99.90;;;;;;4974996;28;20502;-79
2024/04/08 06:26:14;;;;;;;9.73;7.32;;;13.20;99.90;;;;;;4987321;28;20053;-78
2024/04/08 06:28:40;;;;;;;10.27;7.20;;;13.20;99.90;;;;;;4974975;28;20041;-79
2024/04/08 06:31:09;;;;;;;9.30;6.97;;;13.20;99.90;;;;;;4991496;28;20057;-78
2024/04/08 06:33:34;;;;;;;9.27;7.18;;;13.20;99.90;;;;;;5018368;28;20050;-78
2024/04/08 06:36:00;;;;;;;9.75;7.10;;;13.20;99.90;;;;;;4974380;28;20053;-79
2024/04/08 06:38:26;;;;;;;10.50;6.72;;;13.20;99.90;;;;;;4985949;28;20046;-78
2024/04/08 06:40:52;;;;;;;8.88;7.55;;;13.20;99.90;;;;;;4973503;28;20096;-79
2024/04/08 06:43:17;;;;;;;10.25;7.40;;;13.20;99.90;;;;;;4990504;28;20100;-78
2024/04/08 06:45:43;;;;;;;9.95;7.10;;;13.20;99.90;;;;;;4991476;28;20120;-79
2024/04/08 06:48:09;;;;;;;9.32;7.80;;;13.20;99.90;;;;;;4972917;28;20221;-79
2024/04/08 06:50:35;;;;;;;10.10;7.10;;;13.30;99.90;;;;;;4987612;28;20034;-79
2024/04/08 06:53:00;;;;;;;10.02;7.15;;;13.30;99.90;;;;;;4986388;28;20038;-78
2024/04/08 06:55:26;;;;;;;14.27;8.88;;;13.30;99.90;;;;;;4990737;28;20050;-79
2024/04/08 06:57:52;;;;;;;9.13;7.65;;;13.30;99.90;;;;;;4975617;28;20092;-78
2024/04/08 07:00:18;;;;;;;11.98;8.50;;;13.30;99.90;;;;;;4985394;28;20064;-79
2024/04/08 07:02:44;;;;;;;11.32;8.05;;;13.20;99.90;;;;;;4970838;28;20490;-79
2024/04/08 07:05:10;;;;;;;9.00;7.50;;;13.30;99.90;;;;;;5012038;28;20053;-79
2024/04/08 07:07:36;;;;;;;9.70;7.20;;;13.20;99.90;;;;;;4986718;28;20465;-79
2024/04/08 07:10:01;;;;;;;11.20;7.40;;;13.20;99.90;;;;;;4985574;28;20046;-79
2024/04/08 07:12:27;;;;;;;9.55;8.50;;;13.20;99.90;;;;;;4990768;28;20214;-79
2024/04/08 07:14:53;;;;;;;10.57;8.40;;;13.20;99.90;;;;;;4971890;28;20052;-78
2024/04/08 07:17:20;;;;;;;11.90;8.23;;;13.20;99.90;;;;;;4973799;28;20077;-79
2024/04/08 07:19:46;;;;;;;14.25;9.07;;;13.20;99.90;;;;;;4987682;28;20042;-79
2024/04/08 07:22:11;;;;;;;9.40;7.68;;;13.20;99.90;;;;;;4972723;28;20045;-79
2024/04/08 07:24:40;;;;;;;8.82;7.55;;;13.30;99.90;;;;;;4984365;28;20060;-79
2024/04/08 07:27:07;;;;;;;8.85;6.93;;;13.20;99.90;;;;;;4990315;28;20038;-80
2024/04/08 07:29:34;;;;;;;10.07;7.30;;;13.20;99.90;;;;;;4982904;28;20048;-79
2024/04/08 07:32:00;;;;;;;10.05;7.68;;;13.20;99.90;;;;;;4983659;28;20053;-79
2024/04/08 07:34:26;;;;;;;8.32;6.65;;;13.30;99.90;;;;;;4973550;28;20061;-79
2024/04/08 07:36:52;;;;;;;9.10;7.20;;;13.40;99.90;;;;;;4989165;28;22736;-79
2024/04/08 07:39:18;;;;;;;10.90;7.63;;;13.40;99.90;;;;;;4986557;28;21927;-79
2024/04/08 07:41:44;;;;;;;10.73;6.60;;;13.50;99.90;;;;;;4990268;28;20050;-80
2024/04/08 07:44:09;;;;;;;8.90;6.63;;;13.50;99.90;;;;;;4970060;28;20125;-80
2024/04/08 07:46:35;;;;;;;10.18;7.50;;;13.70;99.90;;;;;;4972673;28;20133;-80
2024/04/08 07:49:02;;;;;;;7.78;6.35;;;13.80;99.90;;;;;;4967644;28;20044;-79
2024/04/08 07:51:28;;;;;;;10.55;7.20;;;13.90;99.90;;;;;;4982384;28;20531;-80
2024/04/08 07:53:55;;;;;;;9.18;6.82;;;14.00;99.90;;;;;;4986748;28;20457;-80
2024/04/08 07:56:20;;;;;;;9.57;7.28;;;13.90;99.90;;;;;;4972188;28;20053;-80
2024/04/08 07:58:46;;;;;;;9.20;6.93;;;14.00;99.90;;;;;;4984657;28;20811;-80
2024/04/08 08:01:12;;;;;;;9.40;6.20;;;14.10;99.90;;;;;;4987602;28;20049;-80
2024/04/08 08:03:39;;;;;;;11.07;7.43;;;14.30;99.90;;;;;;4969898;28;20065;-79
2024/04/08 08:06:05;;;;;;;10.40;7.07;;;14.40;99.90;;;;;;4985778;28;20155;-79
2024/04/08 08:08:31;;;;;;;8.35;6.20;;;14.50;99.90;;;;;;4969655;28;20053;-79
2024/04/08 08:11:03;;;;;;;7.93;6.30;;;14.60;99.90;;;;;;5019397;28;20096;-80
2024/04/08 08:13:29;;;;;;;8.45;7.47;;;14.60;99.90;;;;;;4972773;28;20053;-78
2024/04/08 08:15:56;;;;;;;9.23;6.85;;;14.70;99.90;;;;;;5017142;28;20501;-79
2024/04/08 08:18:22;;;;;;;8.30;6.75;;;14.70;99.90;;;;;;4973284;28;20093;-79
2024/04/08 08:20:48;;;;;;;8.90;6.72;;;14.70;99.90;;;;;;4987125;28;20044;-80
2024/04/08 08:23:15;;;;;;;8.35;7.25;;;14.80;99.90;;;;;;4970143;28;20410;-80
2024/04/08 08:25:40;;;;;;;10.30;8.30;;;14.80;99.90;;;;;;4969288;28;20115;-80
2024/04/08 08:28:06;;;;;;;9.38;7.70;;;15.00;99.90;;;;;;5018003;28;20498;-79
2024/04/08 08:30:36;;;;;;;10.27;8.05;;;15.10;99.90;;;;;;4972216;28;20584;-80
2024/04/08 08:33:01;;;;;;;11.45;8.48;;;15.30;99.90;;;;;;4969342;28;20103;-80
2024/04/08 08:35:27;;;;;;;9.80;7.85;;;15.40;99.90;;;;;;4986465;28;20038;-79
2024/04/08 08:37:53;;;;;;;9.90;8.38;;;15.50;99.90;;;;;;5013647;28;20065;-80
2024/04/08 08:40:20;;;;;;;13.13;9.68;;;15.50;99.90;;;;;;5021462;28;20045;-80
2024/04/08 08:42:51;;;;;;;10.80;8.98;;;15.60;99.90;;;;;;4984705;28;20819;-80
2024/04/08 08:45:17;;;;;;;12.23;9.13;;;15.60;99.90;;;;;;4987853;28;20057;-80
2024/04/08 08:47:43;;;;;;;12.10;8.70;;;15.60;99.90;;;;;;4986030;28;20054;-80
2024/04/08 08:50:10;;;;;;;10.13;7.78;;;15.50;99.90;;;;;;4999920;28;20574;-80
2024/04/08 08:52:37;;;;;;;9.85;8.13;;;15.50;99.90;;;;;;5018198;28;20417;-80
2024/04/08 08:55:05;;;;;;;10.43;8.18;;;15.50;99.90;;;;;;4971568;28;20132;-80
2024/04/08 08:57:33;;;;;;;8.98;7.20;;;15.40;99.90;;;;;;4985793;28;20129;-81
2024/04/08 09:00:02;;;;;;;10.45;8.48;;;15.40;99.90;;;;;;4985703;28;20053;-80
2024/04/08 09:02:30;;;;;;;10.20;8.35;;;15.40;99.90;;;;;;4972016;28;20054;-80
2024/04/08 09:04:56;;;;;;;11.25;8.55;;;15.40;99.90;;;;;;4971103;28;20045;-80
2024/04/08 09:07:22;;;;;;;9.00;8.07;;;15.40;99.90;;;;;;4969372;28;20422;-80
2024/04/08 09:09:55;;;;;;;9.23;7.93;;;15.50;99.90;;;;;;4970626;28;20420;-80
2024/04/08 09:12:21;;;;;;;8.73;7.68;;;15.70;99.90;;;;;;5002917;28;20037;-80
2024/04/08 09:14:49;;;;;;;9.05;7.47;;;15.80;99.90;;;;;;4988672;28;20050;-80
2024/04/08 09:17:18;;;;;;;9.93;7.90;;;15.90;99.90;;;;;;4987404;28;20491;-80
2024/04/08 09:19:44;;;;;;;10.30;8.30;;;16.00;99.90;;;;;;4968704;28;20105;-80
2024/04/08 09:22:11;;;;;;;8.90;8.00;;;16.10;99.90;;;;;;4971574;28;20050;-81
2024/04/08 09:24:42;;;;;;;10.32;7.50;;;16.10;99.90;;;;;;4963490;28;20100;-80
2024/04/08 09:27:27;;;;;;;;;;;;;;;;;;;;;
2024/04/08 09:33:29;;;;;;;8.60;7.05;;;16.30;99.90;;;;;;4976379;28;20112;-81
2024/04/08 09:36:29;;;;;;;8.95;7.10;;;16.20;99.90;;;;;;4961463;28;20053;-81
2024/04/08 09:39:09;;;;;;;;;;;;;;;;;;;;;
2024/04/08 09:41:45;;;;;;;7.82;5.43;;;16.20;99.90;;;;;;4985564;28;20048;-81
2024/04/08 09:44:20;;;;;;;;;;;16.10;99.90;;;;;;4969732;28;20490;-81
2024/04/08 09:46:48;;;;;;;10.90;6.25;;;16.20;99.90;;;;;;4957793;28;19944;-80
2024/04/08 09:49:27;;;;;;;11.50;6.32;;;16.20;99.90;;;;;;4964817;28;20438;-81
2024/04/08 09:51:55;;;;;;;8.02;6.05;;;16.30;99.90;;;;;;4983003;28;20057;-81
2024/04/08 09:54:27;;;;;;;9.57;6.65;;;16.30;99.90;;;;;;4999022;28;20138;-82
2024/04/08 09:57:18;;;;;;;8.85;5.75;;;16.50;99.90;;;;;;4970612;28;20058;-82
2024/04/08 09:59:56;;;;;;;8.93;5.50;;;16.70;99.90;;;;;;4967951;28;20474;-82
2024/04/08 10:02:48;;;;;;;8.07;5.78;;;16.90;99.90;;;;;;4980449;28;20387;-81
2024/04/08 10:05:51;;;;;;;7.15;5.50;;;17.10;99.90;;;;;;4865733;29;20061;-81
2024/04/08 10:08:23;;;;;;;7.90;5.45;;;17.10;99.90;;;;;;4927388;28;20055;-82
2024/04/08 10:10:51;;;;;;;7.95;5.53;;;17.20;99.90;;;;;;4929268;28;20105;-82
2024/04/08 10:13:55;;;;;;;7.33;5.37;;;17.30;99.90;;;;;;4941441;28;20089;-81
2024/04/08 10:16:53;;;;;;;9.73;6.10;;;17.40;99.90;;;;;;4934047;28;20174;-81
2024/04/08 10:19:30;;;;;;;10.07;5.32;;;17.40;99.90;;;;;;4874671;29;20052;-81
2024/04/08 10:22:09;;;;;;;6.03;4.93;;;17.60;99.90;;;;;;4923429;29;20044;-81
2024/04/08 10:25:59;;;;;;;8.70;5.00;;;17.60;99.90;;;;;;4921567;29;20052;-81
2024/04/08 10:28:33;;;;;;;7.00;5.10;;;17.80;99.90;;;;;;4925536;28;20047;-81
2024/04/08 10:31:11;;;;;;;5.90;4.00;;;17.90;99.90;;;;;;4910357;29;20228;-82
2024/04/08 10:34:13;;;;;;;5.72;4.07;;;18.00;99.90;;;;;;4908464;29;20142;-82
2024/04/08 10:37:00;;;;;;;7.75;4.38;;;18.20;99.90;;;;;;4935525;28;20500;-82
2024/04/08 10:42:28;;;;;;;6.13;4.20;;;18.20;99.90;;;;;;4923998;28;20718;-81
2024/04/08 10:45:02;;;;;;;7.82;4.18;;;18.30;99.90;;;;;;4936836;28;20133;-82
2024/04/08 10:47:52;;;;;;;;;;;;;;;;;;;;;
2024/04/08 10:51:12;;;;;;;5.68;3.15;;;18.60;99.90;;;;;;4959527;28;20062;-82
2024/04/08 10:53:49;;;;;;;5.07;3.25;;;18.80;99.90;;;;;;4979278;28;20458;-82
2024/04/08 10:56:49;;;;;;;8.05;3.95;;;19.10;99.90;;;;;;4976807;28;20046;-82
2024/04/08 10:59:21;;;;;;;6.90;3.70;;;19.30;99.90;;;;;;4987705;28;20513;-80
2024/04/08 11:02:21;;;;;;;;;;;;;;;;;;;;;
2024/04/08 11:05:21;;;;;;;7.80;3.72;;;19.30;99.90;;;;;;4988303;28;20297;-82
2024/04/08 11:08:49;;;;;;;;;;;;;;;;;;;;;
2024/04/08 11:11:59;;;;;;;5.30;2.50;;;19.40;99.90;;;;;;4967234;28;20165;-82
2024/04/08 11:15:12;;;;;;;;;;;;;;;;;;;;;
2024/04/08 11:21:39;;;;;;;4.18;2.45;;;19.60;99.90;;;;;;4928080;28;20598;-82
2024/04/08 11:28:18;;;;;;;5.75;2.90;;;19.60;99.90;;;;;;4891905;29;20051;-82
2024/04/08 11:35:05;;;;;;;3.97;2.65;;;19.30;99.90;;;;;;4906381;29;20059;-81
2024/04/08 11:58:45;;;;;;;;;;;;;;;;;;;;;
2024/04/08 12:11:42;;;;;;;4.95;1.90;;;19.20;99.90;;;;;;4844601;29;20045;-80
2024/04/08 12:15:06;;;;;;;3.03;1.27;;;19.20;99.90;;;;;;4890848;29;20589;-81
2024/04/08 12:26:36;;;;;;;4.00;1.80;;;19.10;99.90;;;;;;4850056;29;20061;-82
2024/04/08 12:33:32;;;;;;;2.80;1.25;;;19.10;99.90;;;;;;4840498;29;20053;-82
2024/04/08 12:48:15;;;;;;;4.38;1.90;;;18.60;99.90;;;;;;4810932;29;20053;-82
2024/04/08 12:52:21;;;;;;;;;;;;;;;;;;;;;
2024/04/08 12:54:47;;;;;;;2.85;1.88;;;18.80;99.90;;;;;;4852555;29;20518;-81
2024/04/08 12:57:44;;;;;;;3.78;2.20;;;18.60;99.90;;;;;;4919114;28;20140;-81
2024/04/08 13:16:00;;;;;;;4.22;1.70;;;18.30;99.90;;;;;;4792746;29;20483;-81
2024/04/08 13:19:26;;;;;;;;;;;;;;;;;;;;;
2024/04/08 13:26:27;;;;;;;5.28;1.75;;;18.20;99.90;;;;;;4795305;29;20058;-81
2024/04/08 13:29:52;;;;;;;;;;;;;;;;;;;;;
2024/04/08 13:39:41;;;;;;;;;;;;;;;;;;;;;
2024/04/08 13:54:18;;;;;;;5.75;2.00;;;18.10;99.90;;;;;;4896188;29;20159;-81
2024/04/08 13:57:36;;;;;;;4.25;1.60;;;18.10;99.90;;;;;;4876869;29;20052;-81
2024/04/08 14:08:03;;;;;;;3.92;1.88;;;18.20;99.90;;;;;;4911100;29;20172;-81
2024/04/08 14:15:25;;;;;;;4.30;1.98;;;18.10;99.90;;;;;;4996096;28;20097;-80
2024/04/08 14:33:58;;;;;;;5.90;2.83;;;18.20;99.90;;;;;;4705038;30;20118;-80
2024/04/08 14:40:23;;;;;;;5.68;2.63;;;18.10;99.90;;;;;;4844233;29;20113;-81
2024/04/08 14:43:00;;;;;;;6.97;2.45;;;18.10;99.90;;;;;;4868547;29;20056;-80
2024/04/08 14:45:56;;;;;;;7.78;3.20;;;18.10;99.90;;;;;;4886779;29;20130;-80
2024/04/08 14:49:36;;;;;;;;;;;;;;;;;;;;;
2024/04/08 14:52:26;;;;;;;5.57;2.50;;;18.10;99.90;;;;;;4890775;28;20154;-81
2024/04/08 14:54:52;;;;;;;4.32;2.42;;;18.10;99.90;;;;;;4930563;29;20058;-80
2024/04/08 14:57:18;;;;;;;4.97;2.20;;;18.20;99.90;;;;;;4927782;28;20059;-81
2024/04/08 14:59:44;;;;;;;5.43;2.65;;;18.20;99.90;;;;;;4932262;28;20050;-81
2024/04/08 15:02:10;;;;;;;5.82;2.65;;;18.30;99.90;;;;;;4930889;28;20146;-81
2024/04/08 15:04:35;;;;;;;4.65;2.40;;;18.40;99.90;;;;;;5003015;28;20046;-81
2024/04/08 15:07:04;;;;;;;6.05;2.50;;;18.50;99.90;;;;;;4975696;28;20770;-81
2024/04/08 15:09:29;;;;;;;5.35;2.25;;;18.50;99.90;;;;;;4975353;28;20066;-80
2024/04/08 15:11:55;;;;;;;5.03;2.17;;;18.50;99.90;;;;;;4975520;28;20127;-81
2024/04/08 15:14:21;;;;;;;7.47;2.60;;;18.50;99.90;;;;;;4989699;28;20187;-82
2024/04/08 15:16:47;;;;;;;5.40;2.15;;;18.50;99.90;;;;;;4972196;28;20046;-81
2024/04/08 15:19:12;;;;;;;5.78;2.20;;;18.50;99.90;;;;;;5016914;28;20039;-81
2024/04/08 15:21:38;;;;;;;6.43;2.30;;;18.50;99.90;;;;;;4977179;28;20042;-81
2024/04/08 15:24:08;;;;;;;4.57;2.10;;;18.50;99.90;;;;;;4988460;28;20034;-80
2024/04/08 15:26:35;;;;;;;6.53;2.63;;;18.50;99.90;;;;;;4986568;28;20046;-81
2024/04/08 15:29:00;;;;;;;5.82;2.60;;;18.60;99.90;;;;;;4972396;28;20490;-80
2024/04/08 15:31:26;;;;;;;5.90;2.92;;;18.60;99.90;;;;;;4972961;28;20046;-81
2024/04/08 15:33:52;;;;;;;5.18;2.60;;;18.70;99.90;;;;;;4983865;28;20054;-81
2024/04/08 15:36:17;;;;;;;8.35;3.47;;;18.70;99.90;;;;;;4973092;28;20179;-80
2024/04/08 15:38:43;;;;;;;6.63;3.85;;;18.80;99.90;;;;;;4990472;28;20049;-79
2024/04/08 15:41:09;;;;;;;6.05;4.18;;;18.80;99.90;;;;;;4975017;28;20112;-80
2024/04/08 15:43:35;;;;;;;8.18;4.47;;;18.90;99.90;;;;;;4973607;28;20526;-79